sensor_id;sensor_type;location;lat;lon;timestamp;P1;durP1;ratioP1;P2;durP2;ratioP2
65035;SDS011;51603;49.300;8.880;2022-10-16T00:01:45;2.77;;;2.20;;
65035;SDS011;51603;49.300;8.880;2022-10-16T00:04:11;2.67;;;1.60;;
65035;SDS011;51603;49.300;8.880;2022-10-16T00:06:37;4.80;;;4.30;;
65035;SDS011;51603;49.300;8.880;2022-10-16T00:09:03;4.37;;;4.07;;
65035;SDS011;51603;49.300;8.880;2022-10-16T00:11:31;4.13;;;3.83;;
65035;SDS011;51603;49.300;8.880;2022-10-16T00:13:59;3.60;;;3.30;;
65035;SDS011;51603;49.300;8.880;2022-10-16T00:16:27;3.30;;;3.00;;
65035;SDS011;51603;49.300;8.880;2022-10-16T00:18:54;3.73;;;3.43;;
65035;SDS011;51603;49.300;8.880;2022-10-16T00:21:21;2.90;;;2.60;;
65035;SDS011;51603;49.300;8.880;2022-10-16T00:23:52;3.93;;;2.03;;
65035;SDS011;51603;49.300;8.880;2022-10-16T00:26:19;2.63;;;2.43;;
65035;SDS011;51603;49.300;8.880;2022-10-16T00:28:46;2.87;;;2.60;;
65035;SDS011;51603;49.300;8.880;2022-10-16T00:31:12;3.53;;;1.63;;
65035;SDS011;51603;49.300;8.880;2022-10-16T00:33:39;2.07;;;1.97;;
65035;SDS011;51603;49.300;8.880;2022-10-16T00:36:05;2.70;;;1.67;;
65035;SDS011;51603;49.300;8.880;2022-10-16T00:38:33;4.53;;;1.63;;
65035;SDS011;51603;49.300;8.880;2022-10-16T00:40:58;2.67;;;1.30;;
65035;SDS011;51603;49.300;8.880;2022-10-16T00:46:15;2.27;;;2.10;;
65035;SDS011;51603;49.300;8.880;2022-10-16T00:49:09;2.50;;;2.30;;
65035;SDS011;51603;49.300;8.880;2022-10-16T00:51:41;4.33;;;2.10;;
65035;SDS011;51603;49.300;8.880;2022-10-16T00:54:11;2.23;;;2.03;;
65035;SDS011;51603;49.300;8.880;2022-10-16T00:56:50;3.60;;;2.47;;
65035;SDS011;51603;49.300;8.880;2022-10-16T01:01:44;2.73;;;2.30;;
65035;SDS011;51603;49.300;8.880;2022-10-16T01:04:10;2.50;;;2.30;;
65035;SDS011;51603;49.300;8.880;2022-10-16T01:06:53;2.83;;;2.63;;
65035;SDS011;51603;49.300;8.880;2022-10-16T01:12:14;8.50;;;2.33;;
65035;SDS011;51603;49.300;8.880;2022-10-16T01:14:55;3.70;;;3.13;;
65035;SDS011;51603;49.300;8.880;2022-10-16T01:17:28;3.90;;;2.33;;
65035;SDS011;51603;49.300;8.880;2022-10-16T01:20:08;3.03;;;2.60;;
65035;SDS011;51603;49.300;8.880;2022-10-16T01:22:55;2.07;;;1.73;;
65035;SDS011;51603;49.300;8.880;2022-10-16T01:28:32;4.50;;;3.10;;
65035;SDS011;51603;49.300;8.880;2022-10-16T01:31:03;5.93;;;3.30;;
65035;SDS011;51603;49.300;8.880;2022-10-16T01:33:31;5.00;;;3.87;;
65035;SDS011;51603;49.300;8.880;2022-10-16T01:36:08;2.80;;;2.60;;
65035;SDS011;51603;49.300;8.880;2022-10-16T01:38:38;5.00;;;2.80;;
65035;SDS011;51603;49.300;8.880;2022-10-16T01:41:09;2.97;;;2.40;;
65035;SDS011;51603;49.300;8.880;2022-10-16T01:43:43;2.70;;;2.50;;
65035;SDS011;51603;49.300;8.880;2022-10-16T01:46:14;2.93;;;2.30;;
65035;SDS011;51603;49.300;8.880;2022-10-16T01:48:43;3.87;;;2.80;;
65035;SDS011;51603;49.300;8.880;2022-10-16T01:51:10;5.20;;;4.70;;
65035;SDS011;51603;49.300;8.880;2022-10-16T01:53:38;4.80;;;4.33;;
65035;SDS011;51603;49.300;8.880;2022-10-16T01:56:08;3.53;;;3.20;;
65035;SDS011;51603;49.300;8.880;2022-10-16T01:58:37;3.83;;;3.23;;
65035;SDS011;51603;49.300;8.880;2022-10-16T02:01:07;3.10;;;2.80;;
65035;SDS011;51603;49.300;8.880;2022-10-16T02:03:36;3.70;;;2.43;;
65035;SDS011;51603;49.300;8.880;2022-10-16T02:06:05;3.00;;;2.27;;
65035;SDS011;51603;49.300;8.880;2022-10-16T02:08:32;5.03;;;2.77;;
65035;SDS011;51603;49.300;8.880;2022-10-16T02:10:57;4.10;;;3.17;;
65035;SDS011;51603;49.300;8.880;2022-10-16T02:13:30;3.70;;;3.20;;
65035;SDS011;51603;49.300;8.880;2022-10-16T02:16:02;4.70;;;3.40;;
65035;SDS011;51603;49.300;8.880;2022-10-16T02:18:28;3.90;;;3.60;;
65035;SDS011;51603;49.300;8.880;2022-10-16T02:21:00;5.10;;;3.67;;
65035;SDS011;51603;49.300;8.880;2022-10-16T02:25:59;3.87;;;3.53;;
65035;SDS011;51603;49.300;8.880;2022-10-16T02:28:38;3.87;;;3.57;;
65035;SDS011;51603;49.300;8.880;2022-10-16T02:31:18;3.70;;;3.30;;
65035;SDS011;51603;49.300;8.880;2022-10-16T02:33:49;4.27;;;3.87;;
65035;SDS011;51603;49.300;8.880;2022-10-16T02:36:17;3.97;;;3.67;;
65035;SDS011;51603;49.300;8.880;2022-10-16T02:38:43;6.60;;;3.90;;
65035;SDS011;51603;49.300;8.880;2022-10-16T02:41:09;7.33;;;4.57;;
65035;SDS011;51603;49.300;8.880;2022-10-16T02:43:35;4.37;;;3.97;;
65035;SDS011;51603;49.300;8.880;2022-10-16T02:46:01;5.70;;;4.10;;
65035;SDS011;51603;49.300;8.880;2022-10-16T02:48:26;5.00;;;4.17;;
65035;SDS011;51603;49.300;8.880;2022-10-16T02:50:52;8.07;;;4.10;;
65035;SDS011;51603;49.300;8.880;2022-10-16T02:53:17;5.43;;;4.13;;
65035;SDS011;51603;49.300;8.880;2022-10-16T02:55:43;6.33;;;4.70;;
65035;SDS011;51603;49.300;8.880;2022-10-16T02:58:08;8.73;;;5.00;;
65035;SDS011;51603;49.300;8.880;2022-10-16T03:00:34;6.00;;;4.47;;
65035;SDS011;51603;49.300;8.880;2022-10-16T03:02:59;7.10;;;4.67;;
65035;SDS011;51603;49.300;8.880;2022-10-16T03:05:25;4.87;;;4.37;;
65035;SDS011;51603;49.300;8.880;2022-10-16T03:07:50;5.80;;;4.33;;
65035;SDS011;51603;49.300;8.880;2022-10-16T03:10:17;5.00;;;4.60;;
65035;SDS011;51603;49.300;8.880;2022-10-16T03:12:43;5.40;;;4.90;;
65035;SDS011;51603;49.300;8.880;2022-10-16T03:15:08;5.63;;;5.07;;
65035;SDS011;51603;49.300;8.880;2022-10-16T03:17:34;6.07;;;5.00;;
65035;SDS011;51603;49.300;8.880;2022-10-16T03:20:00;5.40;;;4.40;;
65035;SDS011;51603;49.300;8.880;2022-10-16T03:22:25;7.20;;;4.63;;
65035;SDS011;51603;49.300;8.880;2022-10-16T03:24:51;5.87;;;5.33;;
65035;SDS011;51603;49.300;8.880;2022-10-16T03:27:16;7.03;;;4.87;;
65035;SDS011;51603;49.300;8.880;2022-10-16T03:29:42;5.60;;;5.10;;
65035;SDS011;51603;49.300;8.880;2022-10-16T03:32:07;6.43;;;5.40;;
65035;SDS011;51603;49.300;8.880;2022-10-16T03:34:33;5.00;;;4.27;;
65035;SDS011;51603;49.300;8.880;2022-10-16T03:36:58;4.30;;;3.90;;
65035;SDS011;51603;49.300;8.880;2022-10-16T03:39:24;5.60;;;3.60;;
65035;SDS011;51603;49.300;8.880;2022-10-16T03:41:49;7.50;;;5.33;;
65035;SDS011;51603;49.300;8.880;2022-10-16T03:44:15;5.40;;;4.90;;
65035;SDS011;51603;49.300;8.880;2022-10-16T03:46:41;5.33;;;4.60;;
65035;SDS011;51603;49.300;8.880;2022-10-16T03:49:06;4.50;;;3.97;;
65035;SDS011;51603;49.300;8.880;2022-10-16T03:51:32;4.60;;;4.20;;
65035;SDS011;51603;49.300;8.880;2022-10-16T03:53:57;4.93;;;4.37;;
65035;SDS011;51603;49.300;8.880;2022-10-16T03:56:23;4.60;;;3.80;;
65035;SDS011;51603;49.300;8.880;2022-10-16T03:58:48;4.77;;;4.37;;
65035;SDS011;51603;49.300;8.880;2022-10-16T04:01:14;5.60;;;4.07;;
65035;SDS011;51603;49.300;8.880;2022-10-16T04:03:40;7.10;;;4.83;;
65035;SDS011;51603;49.300;8.880;2022-10-16T04:06:06;7.10;;;5.70;;
65035;SDS011;51603;49.300;8.880;2022-10-16T04:08:31;9.17;;;5.30;;
65035;SDS011;51603;49.300;8.880;2022-10-16T04:10:59;6.43;;;4.40;;
65035;SDS011;51603;49.300;8.880;2022-10-16T04:13:25;6.53;;;4.33;;
65035;SDS011;51603;49.300;8.880;2022-10-16T04:15:51;5.80;;;5.30;;
65035;SDS011;51603;49.300;8.880;2022-10-16T04:18:16;4.90;;;4.40;;
65035;SDS011;51603;49.300;8.880;2022-10-16T04:20:42;3.27;;;3.07;;
65035;SDS011;51603;49.300;8.880;2022-10-16T04:23:07;4.00;;;3.60;;
65035;SDS011;51603;49.300;8.880;2022-10-16T04:25:33;4.27;;;3.90;;
65035;SDS011;51603;49.300;8.880;2022-10-16T04:27:59;3.63;;;3.33;;
65035;SDS011;51603;49.300;8.880;2022-10-16T04:30:24;6.83;;;4.77;;
65035;SDS011;51603;49.300;8.880;2022-10-16T04:32:50;4.30;;;4.00;;
65035;SDS011;51603;49.300;8.880;2022-10-16T04:35:17;4.30;;;3.90;;
65035;SDS011;51603;49.300;8.880;2022-10-16T04:37:44;4.40;;;4.00;;
65035;SDS011;51603;49.300;8.880;2022-10-16T04:40:09;4.73;;;4.23;;
65035;SDS011;51603;49.300;8.880;2022-10-16T04:42:35;3.97;;;3.57;;
65035;SDS011;51603;49.300;8.880;2022-10-16T04:45:01;5.53;;;3.57;;
65035;SDS011;51603;49.300;8.880;2022-10-16T04:47:27;4.20;;;3.80;;
65035;SDS011;51603;49.300;8.880;2022-10-16T04:49:53;5.20;;;4.30;;
65035;SDS011;51603;49.300;8.880;2022-10-16T04:52:18;9.63;;;3.97;;
65035;SDS011;51603;49.300;8.880;2022-10-16T04:54:46;6.23;;;4.10;;
65035;SDS011;51603;49.300;8.880;2022-10-16T04:57:11;5.27;;;4.83;;
65035;SDS011;51603;49.300;8.880;2022-10-16T04:59:37;5.77;;;4.20;;
65035;SDS011;51603;49.300;8.880;2022-10-16T05:02:02;6.40;;;4.10;;
65035;SDS011;51603;49.300;8.880;2022-10-16T05:04:28;7.00;;;4.13;;
65035;SDS011;51603;49.300;8.880;2022-10-16T05:06:54;3.70;;;3.40;;
65035;SDS011;51603;49.300;8.880;2022-10-16T05:09:19;5.33;;;3.87;;
65035;SDS011;51603;49.300;8.880;2022-10-16T05:11:45;4.70;;;3.87;;
65035;SDS011;51603;49.300;8.880;2022-10-16T05:14:10;6.23;;;4.07;;
65035;SDS011;51603;49.300;8.880;2022-10-16T05:16:36;4.20;;;3.80;;
65035;SDS011;51603;49.300;8.880;2022-10-16T05:19:01;5.33;;;4.13;;
65035;SDS011;51603;49.300;8.880;2022-10-16T05:21:27;3.70;;;3.40;;
65035;SDS011;51603;49.300;8.880;2022-10-16T05:23:53;6.30;;;3.23;;
65035;SDS011;51603;49.300;8.880;2022-10-16T05:26:19;5.03;;;4.40;;
65035;SDS011;51603;49.300;8.880;2022-10-16T05:28:45;3.20;;;2.90;;
65035;SDS011;51603;49.300;8.880;2022-10-16T05:31:11;3.53;;;3.23;;
65035;SDS011;51603;49.300;8.880;2022-10-16T05:33:36;4.90;;;3.23;;
65035;SDS011;51603;49.300;8.880;2022-10-16T05:36:03;4.83;;;3.87;;
65035;SDS011;51603;49.300;8.880;2022-10-16T05:38:30;4.30;;;3.53;;
65035;SDS011;51603;49.300;8.880;2022-10-16T05:40:55;4.20;;;3.80;;
65035;SDS011;51603;49.300;8.880;2022-10-16T05:43:21;4.43;;;3.03;;
65035;SDS011;51603;49.300;8.880;2022-10-16T05:48:42;5.67;;;3.33;;
65035;SDS011;51603;49.300;8.880;2022-10-16T05:51:08;4.13;;;3.73;;
65035;SDS011;51603;49.300;8.880;2022-10-16T05:53:36;12.30;;;4.40;;
65035;SDS011;51603;49.300;8.880;2022-10-16T05:56:02;5.60;;;3.60;;
65035;SDS011;51603;49.300;8.880;2022-10-16T05:58:30;6.70;;;4.97;;
65035;SDS011;51603;49.300;8.880;2022-10-16T06:00:58;9.60;;;6.07;;
65035;SDS011;51603;49.300;8.880;2022-10-16T06:03:51;4.40;;;4.00;;
65035;SDS011;51603;49.300;8.880;2022-10-16T06:06:18;5.77;;;4.33;;
65035;SDS011;51603;49.300;8.880;2022-10-16T06:08:46;10.50;;;4.97;;
65035;SDS011;51603;49.300;8.880;2022-10-16T06:11:14;4.53;;;4.00;;
65035;SDS011;51603;49.300;8.880;2022-10-16T06:13:41;4.50;;;4.10;;
65035;SDS011;51603;49.300;8.880;2022-10-16T06:16:07;4.10;;;3.80;;
65035;SDS011;51603;49.300;8.880;2022-10-16T06:18:34;4.57;;;4.10;;
65035;SDS011;51603;49.300;8.880;2022-10-16T06:20:59;4.23;;;3.50;;
65035;SDS011;51603;49.300;8.880;2022-10-16T06:23:31;4.40;;;3.57;;
65035;SDS011;51603;49.300;8.880;2022-10-16T06:26:03;5.57;;;3.43;;
65035;SDS011;51603;49.300;8.880;2022-10-16T06:28:33;5.30;;;3.93;;
65035;SDS011;51603;49.300;8.880;2022-10-16T06:30:59;5.07;;;3.83;;
65035;SDS011;51603;49.300;8.880;2022-10-16T06:33:25;5.07;;;4.53;;
65035;SDS011;51603;49.300;8.880;2022-10-16T06:35:51;5.07;;;4.40;;
65035;SDS011;51603;49.300;8.880;2022-10-16T06:38:17;4.13;;;3.73;;
65035;SDS011;51603;49.300;8.880;2022-10-16T06:40:42;4.13;;;3.53;;
65035;SDS011;51603;49.300;8.880;2022-10-16T06:43:08;5.50;;;3.53;;
65035;SDS011;51603;49.300;8.880;2022-10-16T06:45:33;4.10;;;3.70;;
65035;SDS011;51603;49.300;8.880;2022-10-16T06:47:58;3.60;;;3.30;;
65035;SDS011;51603;49.300;8.880;2022-10-16T06:50:24;3.53;;;3.23;;
65035;SDS011;51603;49.300;8.880;2022-10-16T06:52:50;6.20;;;4.53;;
65035;SDS011;51603;49.300;8.880;2022-10-16T06:55:15;6.30;;;5.50;;
65035;SDS011;51603;49.300;8.880;2022-10-16T06:57:42;4.70;;;4.00;;
65035;SDS011;51603;49.300;8.880;2022-10-16T07:00:08;4.70;;;4.30;;
65035;SDS011;51603;49.300;8.880;2022-10-16T07:02:34;5.47;;;4.80;;
65035;SDS011;51603;49.300;8.880;2022-10-16T07:05:00;7.00;;;6.30;;
65035;SDS011;51603;49.300;8.880;2022-10-16T07:07:25;6.03;;;5.07;;
65035;SDS011;51603;49.300;8.880;2022-10-16T07:09:51;6.70;;;4.60;;
65035;SDS011;51603;49.300;8.880;2022-10-16T07:12:17;8.30;;;4.50;;
65035;SDS011;51603;49.300;8.880;2022-10-16T07:14:42;5.03;;;4.63;;
65035;SDS011;51603;49.300;8.880;2022-10-16T07:17:08;5.80;;;4.70;;
65035;SDS011;51603;49.300;8.880;2022-10-16T07:19:33;4.43;;;4.00;;
65035;SDS011;51603;49.300;8.880;2022-10-16T07:21:59;5.23;;;4.40;;
65035;SDS011;51603;49.300;8.880;2022-10-16T07:24:25;4.90;;;4.50;;
65035;SDS011;51603;49.300;8.880;2022-10-16T07:26:51;6.43;;;4.03;;
65035;SDS011;51603;49.300;8.880;2022-10-16T07:29:17;4.57;;;4.13;;
65035;SDS011;51603;49.300;8.880;2022-10-16T07:31:45;18.43;;;5.80;;
65035;SDS011;51603;49.300;8.880;2022-10-16T07:34:11;4.83;;;4.33;;
65035;SDS011;51603;49.300;8.880;2022-10-16T07:36:38;4.47;;;4.10;;
65035;SDS011;51603;49.300;8.880;2022-10-16T07:39:04;5.53;;;4.60;;
65035;SDS011;51603;49.300;8.880;2022-10-16T07:41:29;4.77;;;4.37;;
65035;SDS011;51603;49.300;8.880;2022-10-16T07:43:57;5.40;;;4.90;;
65035;SDS011;51603;49.300;8.880;2022-10-16T07:46:25;12.77;;;10.47;;
65035;SDS011;51603;49.300;8.880;2022-10-16T07:48:51;6.37;;;5.87;;
65035;SDS011;51603;49.300;8.880;2022-10-16T07:51:18;6.43;;;4.60;;
65035;SDS011;51603;49.300;8.880;2022-10-16T07:53:45;6.17;;;4.60;;
65035;SDS011;51603;49.300;8.880;2022-10-16T07:56:11;11.90;;;8.87;;
65035;SDS011;51603;49.300;8.880;2022-10-16T07:58:37;6.37;;;5.83;;
65035;SDS011;51603;49.300;8.880;2022-10-16T08:01:04;8.47;;;6.50;;
65035;SDS011;51603;49.300;8.880;2022-10-16T08:03:31;6.27;;;5.67;;
65035;SDS011;51603;49.300;8.880;2022-10-16T08:05:58;4.57;;;4.17;;
65035;SDS011;51603;49.300;8.880;2022-10-16T08:08:24;5.50;;;5.00;;
65035;SDS011;51603;49.300;8.880;2022-10-16T08:10:50;3.97;;;3.53;;
65035;SDS011;51603;49.300;8.880;2022-10-16T08:13:15;8.13;;;4.90;;
65035;SDS011;51603;49.300;8.880;2022-10-16T08:15:41;5.63;;;4.83;;
65035;SDS011;51603;49.300;8.880;2022-10-16T08:18:08;4.37;;;3.70;;
65035;SDS011;51603;49.300;8.880;2022-10-16T08:20:35;5.40;;;3.40;;
65035;SDS011;51603;49.300;8.880;2022-10-16T08:23:00;4.80;;;4.30;;
65035;SDS011;51603;49.300;8.880;2022-10-16T08:25:26;3.70;;;3.30;;
65035;SDS011;51603;49.300;8.880;2022-10-16T08:27:52;7.93;;;3.23;;
65035;SDS011;51603;49.300;8.880;2022-10-16T08:30:18;5.17;;;2.60;;
65035;SDS011;51603;49.300;8.880;2022-10-16T08:32:44;3.97;;;2.77;;
65035;SDS011;51603;49.300;8.880;2022-10-16T08:35:10;3.70;;;2.67;;
65035;SDS011;51603;49.300;8.880;2022-10-16T08:37:37;3.80;;;2.50;;
65035;SDS011;51603;49.300;8.880;2022-10-16T08:40:04;3.10;;;2.40;;
65035;SDS011;51603;49.300;8.880;2022-10-16T08:43:08;2.73;;;2.53;;
65035;SDS011;51603;49.300;8.880;2022-10-16T08:45:38;8.13;;;3.07;;
65035;SDS011;51603;49.300;8.880;2022-10-16T08:50:51;5.87;;;2.23;;
65035;SDS011;51603;49.300;8.880;2022-10-16T08:53:20;5.97;;;3.07;;
65035;SDS011;51603;49.300;8.880;2022-10-16T08:56:01;6.13;;;3.07;;
65035;SDS011;51603;49.300;8.880;2022-10-16T08:58:27;6.37;;;2.87;;
65035;SDS011;51603;49.300;8.880;2022-10-16T09:00:59;3.10;;;2.47;;
65035;SDS011;51603;49.300;8.880;2022-10-16T09:03:37;4.60;;;2.33;;
65035;SDS011;51603;49.300;8.880;2022-10-16T09:06:30;3.67;;;2.87;;
65035;SDS011;51603;49.300;8.880;2022-10-16T09:17:30;2.60;;;2.40;;
65035;SDS011;51603;49.300;8.880;2022-10-16T09:22:35;4.67;;;3.00;;
65035;SDS011;51603;49.300;8.880;2022-10-16T09:25:01;3.17;;;2.87;;
65035;SDS011;51603;49.300;8.880;2022-10-16T09:27:36;4.60;;;2.23;;
65035;SDS011;51603;49.300;8.880;2022-10-16T09:30:10;3.20;;;2.23;;
65035;SDS011;51603;49.300;8.880;2022-10-16T09:32:43;3.33;;;2.30;;
65035;SDS011;51603;49.300;8.880;2022-10-16T09:35:16;2.70;;;2.33;;
65035;SDS011;51603;49.300;8.880;2022-10-16T09:37:48;3.67;;;2.33;;
65035;SDS011;51603;49.300;8.880;2022-10-16T09:40:35;3.00;;;2.40;;
65035;SDS011;51603;49.300;8.880;2022-10-16T09:45:43;2.90;;;2.63;;
65035;SDS011;51603;49.300;8.880;2022-10-16T09:48:17;6.63;;;2.70;;
65035;SDS011;51603;49.300;8.880;2022-10-16T09:50:54;4.17;;;2.20;;
65035;SDS011;51603;49.300;8.880;2022-10-16T09:53:21;2.50;;;2.20;;
65035;SDS011;51603;49.300;8.880;2022-10-16T09:55:48;4.77;;;2.50;;
65035;SDS011;51603;49.300;8.880;2022-10-16T09:58:15;4.00;;;2.70;;
65035;SDS011;51603;49.300;8.880;2022-10-16T10:00:41;2.97;;;1.90;;
65035;SDS011;51603;49.300;8.880;2022-10-16T10:03:15;2.07;;;1.70;;
65035;SDS011;51603;49.300;8.880;2022-10-16T10:05:55;2.23;;;2.03;;
65035;SDS011;51603;49.300;8.880;2022-10-16T10:08:20;4.57;;;1.83;;
65035;SDS011;51603;49.300;8.880;2022-10-16T10:10:47;1.93;;;1.73;;
65035;SDS011;51603;49.300;8.880;2022-10-16T10:13:17;5.37;;;1.97;;
65035;SDS011;51603;49.300;8.880;2022-10-16T10:15:49;3.63;;;1.70;;
65035;SDS011;51603;49.300;8.880;2022-10-16T10:18:19;9.10;;;2.37;;
65035;SDS011;51603;49.300;8.880;2022-10-16T10:20:46;1.90;;;1.60;;
65035;SDS011;51603;49.300;8.880;2022-10-16T10:23:23;1.93;;;1.73;;
65035;SDS011;51603;49.300;8.880;2022-10-16T10:31:33;3.00;;;1.53;;
65035;SDS011;51603;49.300;8.880;2022-10-16T10:34:44;4.07;;;1.83;;
65035;SDS011;51603;49.300;8.880;2022-10-16T10:37:51;3.80;;;2.13;;
65035;SDS011;51603;49.300;8.880;2022-10-16T10:43:09;2.83;;;1.53;;
65035;SDS011;51603;49.300;8.880;2022-10-16T10:45:43;2.20;;;1.30;;
65035;SDS011;51603;49.300;8.880;2022-10-16T10:50:49;7.57;;;1.40;;
65035;SDS011;51603;49.300;8.880;2022-10-16T10:56:34;4.33;;;2.20;;
65035;SDS011;51603;49.300;8.880;2022-10-16T10:59:18;3.60;;;1.63;;
65035;SDS011;51603;49.300;8.880;2022-10-16T11:02:04;1.50;;;1.07;;
65035;SDS011;51603;49.300;8.880;2022-10-16T11:04:42;4.93;;;1.83;;
65035;SDS011;51603;49.300;8.880;2022-10-16T11:07:21;2.37;;;1.20;;
65035;SDS011;51603;49.300;8.880;2022-10-16T11:09:56;3.03;;;1.97;;
65035;SDS011;51603;49.300;8.880;2022-10-16T11:12:30;2.33;;;1.43;;
65035;SDS011;51603;49.300;8.880;2022-10-16T11:15:02;3.93;;;1.80;;
65035;SDS011;51603;49.300;8.880;2022-10-16T11:17:44;2.80;;;1.10;;
65035;SDS011;51603;49.300;8.880;2022-10-16T11:20:20;4.20;;;1.47;;
65035;SDS011;51603;49.300;8.880;2022-10-16T11:22:54;4.40;;;1.87;;
65035;SDS011;51603;49.300;8.880;2022-10-16T11:25:31;1.83;;;1.50;;
65035;SDS011;51603;49.300;8.880;2022-10-16T11:28:02;2.63;;;1.20;;
65035;SDS011;51603;49.300;8.880;2022-10-16T11:33:42;1.83;;;1.37;;
65035;SDS011;51603;49.300;8.880;2022-10-16T11:36:14;2.40;;;1.37;;
65035;SDS011;51603;49.300;8.880;2022-10-16T11:39:04;2.33;;;1.50;;
65035;SDS011;51603;49.300;8.880;2022-10-16T11:41:52;1.70;;;1.57;;
65035;SDS011;51603;49.300;8.880;2022-10-16T11:44:48;2.00;;;1.47;;
65035;SDS011;51603;49.300;8.880;2022-10-16T11:47:31;2.93;;;1.40;;
65035;SDS011;51603;49.300;8.880;2022-10-16T11:50:05;2.70;;;1.23;;
65035;SDS011;51603;49.300;8.880;2022-10-16T11:55:28;3.63;;;1.40;;
65035;SDS011;51603;49.300;8.880;2022-10-16T11:58:01;3.63;;;1.37;;
65035;SDS011;51603;49.300;8.880;2022-10-16T12:00:44;4.80;;;1.53;;
65035;SDS011;51603;49.300;8.880;2022-10-16T12:08:33;3.17;;;1.30;;
65035;SDS011;51603;49.300;8.880;2022-10-16T12:11:07;3.60;;;1.60;;
65035;SDS011;51603;49.300;8.880;2022-10-16T12:13:45;2.40;;;1.43;;
65035;SDS011;51603;49.300;8.880;2022-10-16T12:18:39;6.60;;;1.67;;
65035;SDS011;51603;49.300;8.880;2022-10-16T12:21:06;2.60;;;1.80;;
65035;SDS011;51603;49.300;8.880;2022-10-16T12:23:54;3.90;;;1.60;;
65035;SDS011;51603;49.300;8.880;2022-10-16T12:26:39;1.73;;;1.43;;
65035;SDS011;51603;49.300;8.880;2022-10-16T12:29:12;1.50;;;1.37;;
65035;SDS011;51603;49.300;8.880;2022-10-16T12:31:45;2.40;;;1.43;;
65035;SDS011;51603;49.300;8.880;2022-10-16T12:36:56;2.23;;;1.50;;
65035;SDS011;51603;49.300;8.880;2022-10-16T12:39:38;1.93;;;1.37;;
65035;SDS011;51603;49.300;8.880;2022-10-16T12:42:17;2.70;;;1.80;;
65035;SDS011;51603;49.300;8.880;2022-10-16T12:44:46;4.57;;;1.93;;
65035;SDS011;51603;49.300;8.880;2022-10-16T12:47:36;2.60;;;2.10;;
65035;SDS011;51603;49.300;8.880;2022-10-16T12:53:17;1.70;;;1.43;;
65035;SDS011;51603;49.300;8.880;2022-10-16T12:58:41;4.13;;;1.80;;
65035;SDS011;51603;49.300;8.880;2022-10-16T13:01:26;1.90;;;1.70;;
65035;SDS011;51603;49.300;8.880;2022-10-16T13:07:17;1.53;;;1.33;;
65035;SDS011;51603;49.300;8.880;2022-10-16T13:09:58;2.00;;;1.40;;
65035;SDS011;51603;49.300;8.880;2022-10-16T13:13:02;5.20;;;1.67;;
65035;SDS011;51603;49.300;8.880;2022-10-16T13:18:27;2.80;;;1.90;;
65035;SDS011;51603;49.300;8.880;2022-10-16T13:21:06;2.23;;;1.50;;
65035;SDS011;51603;49.300;8.880;2022-10-16T13:23:57;5.60;;;1.63;;
65035;SDS011;51603;49.300;8.880;2022-10-16T13:29:09;1.80;;;1.53;;
65035;SDS011;51603;49.300;8.880;2022-10-16T13:31:36;1.60;;;1.30;;
65035;SDS011;51603;49.300;8.880;2022-10-16T13:34:03;2.93;;;1.77;;
65035;SDS011;51603;49.300;8.880;2022-10-16T13:36:42;5.30;;;1.50;;
65035;SDS011;51603;49.300;8.880;2022-10-16T13:39:20;2.27;;;1.30;;
65035;SDS011;51603;49.300;8.880;2022-10-16T13:42:06;4.00;;;1.90;;
65035;SDS011;51603;49.300;8.880;2022-10-16T13:44:49;1.90;;;1.40;;
65035;SDS011;51603;49.300;8.880;2022-10-16T13:47:20;2.83;;;1.97;;
65035;SDS011;51603;49.300;8.880;2022-10-16T13:49:58;3.03;;;1.77;;
65035;SDS011;51603;49.300;8.880;2022-10-16T13:52:28;1.93;;;1.50;;
65035;SDS011;51603;49.300;8.880;2022-10-16T13:54:54;4.10;;;2.07;;
65035;SDS011;51603;49.300;8.880;2022-10-16T13:57:21;2.03;;;1.40;;
65035;SDS011;51603;49.300;8.880;2022-10-16T13:59:50;2.73;;;1.77;;
65035;SDS011;51603;49.300;8.880;2022-10-16T14:02:25;5.93;;;3.50;;
65035;SDS011;51603;49.300;8.880;2022-10-16T14:04:53;5.00;;;3.93;;
65035;SDS011;51603;49.300;8.880;2022-10-16T14:07:24;7.43;;;3.83;;
65035;SDS011;51603;49.300;8.880;2022-10-16T14:09:56;5.80;;;4.80;;
65035;SDS011;51603;49.300;8.880;2022-10-16T14:12:26;6.13;;;4.27;;
65035;SDS011;51603;49.300;8.880;2022-10-16T14:14:52;5.10;;;3.93;;
65035;SDS011;51603;49.300;8.880;2022-10-16T14:17:26;4.70;;;2.70;;
65035;SDS011;51603;49.300;8.880;2022-10-16T14:19:57;4.67;;;3.20;;
65035;SDS011;51603;49.300;8.880;2022-10-16T14:22:37;5.40;;;2.03;;
65035;SDS011;51603;49.300;8.880;2022-10-16T14:25:21;1.80;;;1.70;;
65035;SDS011;51603;49.300;8.880;2022-10-16T14:30:23;2.53;;;1.83;;
65035;SDS011;51603;49.300;8.880;2022-10-16T14:32:56;3.50;;;2.77;;
65035;SDS011;51603;49.300;8.880;2022-10-16T14:35:24;9.10;;;2.60;;
65035;SDS011;51603;49.300;8.880;2022-10-16T14:37:52;2.23;;;2.00;;
65035;SDS011;51603;49.300;8.880;2022-10-16T14:40:20;2.73;;;1.80;;
65035;SDS011;51603;49.300;8.880;2022-10-16T14:42:50;4.80;;;2.10;;
65035;SDS011;51603;49.300;8.880;2022-10-16T14:45:20;7.87;;;2.70;;
65035;SDS011;51603;49.300;8.880;2022-10-16T14:47:49;4.43;;;2.30;;
65035;SDS011;51603;49.300;8.880;2022-10-16T14:50:18;3.73;;;1.93;;
65035;SDS011;51603;49.300;8.880;2022-10-16T14:52:43;4.40;;;1.97;;
65035;SDS011;51603;49.300;8.880;2022-10-16T14:55:09;3.20;;;1.73;;
65035;SDS011;51603;49.300;8.880;2022-10-16T14:57:35;2.90;;;1.57;;
65035;SDS011;51603;49.300;8.880;2022-10-16T15:00:04;3.40;;;2.07;;
65035;SDS011;51603;49.300;8.880;2022-10-16T15:02:44;2.70;;;2.37;;
65035;SDS011;51603;49.300;8.880;2022-10-16T15:05:15;3.50;;;2.20;;
65035;SDS011;51603;49.300;8.880;2022-10-16T15:07:41;5.13;;;1.90;;
65035;SDS011;51603;49.300;8.880;2022-10-16T15:10:07;2.83;;;2.47;;
65035;SDS011;51603;49.300;8.880;2022-10-16T15:12:33;3.10;;;2.53;;
65035;SDS011;51603;49.300;8.880;2022-10-16T15:14:58;6.10;;;5.03;;
65035;SDS011;51603;49.300;8.880;2022-10-16T15:17:24;14.33;;;11.60;;
65035;SDS011;51603;49.300;8.880;2022-10-16T15:19:49;20.43;;;12.60;;
65035;SDS011;51603;49.300;8.880;2022-10-16T15:22:16;15.50;;;10.87;;
65035;SDS011;51603;49.300;8.880;2022-10-16T15:24:42;7.97;;;6.47;;
65035;SDS011;51603;49.300;8.880;2022-10-16T15:27:07;10.97;;;7.90;;
65035;SDS011;51603;49.300;8.880;2022-10-16T15:29:33;6.70;;;4.17;;
65035;SDS011;51603;49.300;8.880;2022-10-16T15:31:59;9.83;;;5.60;;
65035;SDS011;51603;49.300;8.880;2022-10-16T15:34:24;6.67;;;5.60;;
65035;SDS011;51603;49.300;8.880;2022-10-16T15:36:49;4.40;;;4.00;;
65035;SDS011;51603;49.300;8.880;2022-10-16T15:39:16;7.63;;;3.00;;
65035;SDS011;51603;49.300;8.880;2022-10-16T15:41:44;4.93;;;3.00;;
65035;SDS011;51603;49.300;8.880;2022-10-16T15:44:18;3.60;;;2.57;;
65035;SDS011;51603;49.300;8.880;2022-10-16T15:46:43;2.27;;;2.00;;
65035;SDS011;51603;49.300;8.880;2022-10-16T15:49:09;4.53;;;2.40;;
65035;SDS011;51603;49.300;8.880;2022-10-16T15:51:37;5.77;;;2.20;;
65035;SDS011;51603;49.300;8.880;2022-10-16T15:54:04;2.80;;;2.30;;
65035;SDS011;51603;49.300;8.880;2022-10-16T15:56:30;6.77;;;2.20;;
65035;SDS011;51603;49.300;8.880;2022-10-16T15:58:58;3.90;;;2.20;;
65035;SDS011;51603;49.300;8.880;2022-10-16T16:01:24;3.50;;;2.30;;
65035;SDS011;51603;49.300;8.880;2022-10-16T16:03:54;4.27;;;2.40;;
65035;SDS011;51603;49.300;8.880;2022-10-16T16:06:20;3.50;;;2.80;;
65035;SDS011;51603;49.300;8.880;2022-10-16T16:08:48;5.80;;;2.70;;
65035;SDS011;51603;49.300;8.880;2022-10-16T16:11:15;5.10;;;2.20;;
65035;SDS011;51603;49.300;8.880;2022-10-16T16:13:41;3.17;;;2.20;;
65035;SDS011;51603;49.300;8.880;2022-10-16T16:16:08;2.97;;;2.30;;
65035;SDS011;51603;49.300;8.880;2022-10-16T16:18:35;5.90;;;2.40;;
65035;SDS011;51603;49.300;8.880;2022-10-16T16:21:01;10.80;;;6.50;;
65035;SDS011;51603;49.300;8.880;2022-10-16T16:23:26;7.40;;;6.20;;
65035;SDS011;51603;49.300;8.880;2022-10-16T16:28:36;8.20;;;7.40;;